createdAt,value
2018-05-29T00:01:03.142Z,17.70
2018-05-29T00:03:31.487Z,17.70
2018-05-29T00:05:59.831Z,17.60
2018-05-29T00:08:28.157Z,17.60
2018-05-29T00:10:56.490Z,17.50
2018-05-29T00:13:24.820Z,17.50
2018-05-29T00:15:53.159Z,17.50
2018-05-29T00:18:21.477Z,17.40
2018-05-29T00:20:49.817Z,17.40
2018-05-29T00:23:18.134Z,17.40
2018-05-29T00:25:46.473Z,17.40
2018-05-29T00:28:14.795Z,17.30
2018-05-29T00:30:43.138Z,17.40
2018-05-29T00:33:11.459Z,17.30
2018-05-29T00:35:39.799Z,17.30
2018-05-29T00:38:08.113Z,17.30
2018-05-29T00:40:36.468Z,17.20
2018-05-29T00:43:04.790Z,17.20
2018-05-29T00:45:33.112Z,17.20
2018-05-29T00:48:01.453Z,17.20
2018-05-29T00:50:29.783Z,17.20
2018-05-29T00:52:58.135Z,17.10
2018-05-29T00:55:37.110Z,17.00
2018-05-29T00:58:05.456Z,17.00
2018-05-29T01:00:33.770Z,17.00
2018-05-29T01:03:02.106Z,16.90
2018-05-29T01:05:30.426Z,16.90
2018-05-29T01:07:58.786Z,16.90
2018-05-29T01:10:27.121Z,16.80
2018-05-29T01:12:54.701Z,16.80
2018-05-29T01:15:25.922Z,16.80
2018-05-29T01:17:54.274Z,16.80
2018-05-29T01:20:22.590Z,16.80
2018-05-29T01:22:50.905Z,16.70
2018-05-29T01:25:19.244Z,16.70
2018-05-29T01:27:47.559Z,16.70
2018-05-29T01:30:15.893Z,16.70
2018-05-29T01:32:43.446Z,16.70
2018-05-29T01:35:11.786Z,16.60
2018-05-29T01:37:40.104Z,16.60
2018-05-29T01:40:08.448Z,16.60
2018-05-29T01:42:36.773Z,16.60
2018-05-29T01:45:05.109Z,16.50
2018-05-29T01:47:33.460Z,16.40
2018-05-29T01:50:01.801Z,16.40
2018-05-29T01:52:30.121Z,16.40
2018-05-29T01:54:58.457Z,16.40
2018-05-29T01:57:26.778Z,16.40
2018-05-29T01:59:55.127Z,16.40
2018-05-29T02:02:23.437Z,16.40
2018-05-29T02:04:51.778Z,16.40
2018-05-29T02:07:20.104Z,16.40
2018-05-29T02:09:48.416Z,16.40
2018-05-29T02:12:16.756Z,16.30
2018-05-29T02:14:44.310Z,16.30
2018-05-29T02:17:12.641Z,16.30
2018-05-29T02:19:40.958Z,16.30
2018-05-29T02:22:08.526Z,16.30
2018-05-29T02:24:36.089Z,16.20
2018-05-29T02:27:04.436Z,16.20
2018-05-29T02:29:32.758Z,16.20
2018-05-29T02:32:01.095Z,16.20
2018-05-29T02:34:29.411Z,16.30
2018-05-29T02:36:57.748Z,16.20
2018-05-29T02:39:26.064Z,16.20
2018-05-29T02:41:54.409Z,16.20
2018-05-29T02:44:22.735Z,16.20
2018-05-29T02:46:51.083Z,16.20
2018-05-29T02:49:19.402Z,16.20
2018-05-29T02:51:47.721Z,16.10
2018-05-29T02:54:16.087Z,16.10
2018-05-29T02:56:44.414Z,16.00
2018-05-29T02:59:12.748Z,16.00
2018-05-29T03:01:41.087Z,16.00
2018-05-29T03:04:09.430Z,15.90
2018-05-29T03:06:37.745Z,15.90
2018-05-29T03:09:06.092Z,15.90
2018-05-29T03:11:34.410Z,15.90
2018-05-29T03:14:02.753Z,15.90
2018-05-29T03:16:31.083Z,15.90
2018-05-29T03:18:59.427Z,15.90
2018-05-29T03:21:27.742Z,15.80
2018-05-29T03:23:56.089Z,15.80
2018-05-29T03:26:24.415Z,15.80
2018-05-29T03:28:52.756Z,15.80
2018-05-29T03:31:21.082Z,15.90
2018-05-29T03:33:49.401Z,15.90
2018-05-29T03:36:17.753Z,15.90
2018-05-29T03:38:46.075Z,15.90
2018-05-29T03:41:14.414Z,15.80
2018-05-29T03:43:42.737Z,15.90
2018-05-29T03:46:11.085Z,15.90
2018-05-29T03:48:39.397Z,15.90
2018-05-29T03:51:07.735Z,16.00
2018-05-29T03:53:36.053Z,15.90
2018-05-29T03:56:04.389Z,15.90
2018-05-29T03:58:32.710Z,15.90
2018-05-29T04:01:01.045Z,16.00
2018-05-29T04:03:29.362Z,16.10
2018-05-29T04:05:57.701Z,16.20
2018-05-29T04:08:26.025Z,16.30
2018-05-29T04:10:54.369Z,16.60
2018-05-29T04:13:22.691Z,16.80
2018-05-29T04:15:51.088Z,16.90
2018-05-29T04:18:19.371Z,17.10
2018-05-29T04:20:47.689Z,17.10
2018-05-29T04:23:16.031Z,17.20
2018-05-29T04:25:44.356Z,17.30
2018-05-29T04:28:12.703Z,17.30
2018-05-29T04:30:41.024Z,17.40
2018-05-29T04:33:09.369Z,17.50
2018-05-29T04:35:37.689Z,17.60
2018-05-29T04:38:06.026Z,17.80
2018-05-29T04:40:34.353Z,18.30
2018-05-29T04:43:02.716Z,18.90
2018-05-29T04:45:31.047Z,19.60
2018-05-29T04:47:59.406Z,20.20
2018-05-29T04:50:27.728Z,20.70
2018-05-29T04:52:55.319Z,20.70
2018-05-29T04:55:23.638Z,21.50
2018-05-29T04:57:51.959Z,21.80
2018-05-29T05:00:20.303Z,22.00
2018-05-29T05:02:48.626Z,22.10
2018-05-29T05:05:16.966Z,22.30
2018-05-29T05:07:45.305Z,22.40
2018-05-29T05:10:13.645Z,22.50
2018-05-29T05:12:41.962Z,22.40
2018-05-29T05:15:10.305Z,22.10
2018-05-29T05:17:38.634Z,21.80
2018-05-29T05:20:06.977Z,21.50
2018-05-29T05:22:35.303Z,21.30
2018-05-29T05:25:03.637Z,21.10
2018-05-29T05:27:31.958Z,21.00
2018-05-29T05:30:00.323Z,21.00
2018-05-29T05:32:28.927Z,21.00
2018-05-29T05:34:56.510Z,20.90
2018-05-29T05:37:24.835Z,21.00
2018-05-29T05:39:53.172Z,21.00
2018-05-29T05:42:21.486Z,21.00
2018-05-29T05:44:49.834Z,21.20
2018-05-29T05:47:18.151Z,21.40
2018-05-29T05:49:46.493Z,21.60
2018-05-29T05:52:14.815Z,21.80
2018-05-29T05:54:43.157Z,21.90
2018-05-29T05:57:11.466Z,22.00
2018-05-29T05:59:39.806Z,22.00
2018-05-29T06:02:08.145Z,22.00
2018-05-29T06:04:36.459Z,22.10
2018-05-29T06:07:04.794Z,22.30
2018-05-29T06:09:33.106Z,22.60
2018-05-29T06:12:01.443Z,22.80
2018-05-29T06:14:29.763Z,23.00
2018-05-29T06:16:58.105Z,23.20
2018-05-29T06:19:26.431Z,23.40
2018-05-29T06:21:54.803Z,23.60
2018-05-29T06:24:23.147Z,23.70
2018-05-29T06:26:51.491Z,23.70
2018-05-29T06:29:19.805Z,23.70
2018-05-29T06:31:48.143Z,23.60
2018-05-29T06:34:15.691Z,23.50
2018-05-29T06:36:44.039Z,23.50
2018-05-29T06:39:12.350Z,23.50
2018-05-29T06:41:40.687Z,23.60
2018-05-29T06:44:09.013Z,23.70
2018-05-29T06:46:37.358Z,23.90
2018-05-29T06:49:05.690Z,24.10
2018-05-29T06:51:34.029Z,24.20
2018-05-29T06:54:02.341Z,24.50
2018-05-29T06:56:30.680Z,24.90
2018-05-29T06:58:58.997Z,25.20
2018-05-29T07:01:27.334Z,25.10
2018-05-29T07:03:55.653Z,25.10
2018-05-29T07:06:24.031Z,25.40
2018-05-29T07:08:52.367Z,25.70
2018-05-29T07:11:20.702Z,26.00
2018-05-29T07:13:49.024Z,26.30
2018-05-29T07:16:17.362Z,26.40
2018-05-29T07:18:45.676Z,26.40
2018-05-29T07:21:14.015Z,26.50
2018-05-29T07:23:42.331Z,26.50
2018-05-29T07:26:10.675Z,26.40
2018-05-29T07:28:38.993Z,26.30
2018-05-29T07:31:07.328Z,26.20
2018-05-29T07:33:35.650Z,26.20
2018-05-29T07:36:04.001Z,26.00
2018-05-29T07:38:32.329Z,25.90
2018-05-29T07:41:00.642Z,25.80
2018-05-29T07:43:28.983Z,25.80
2018-05-29T07:45:57.309Z,25.90
2018-05-29T07:48:25.668Z,26.00
2018-05-29T07:50:53.997Z,26.30
2018-05-29T07:53:22.335Z,26.50
2018-05-29T07:55:50.694Z,26.90
2018-05-29T07:58:19.031Z,27.10
2018-05-29T08:00:47.355Z,27.00
2018-05-29T08:03:15.693Z,26.90
2018-05-29T08:05:44.010Z,26.70
2018-05-29T08:08:12.350Z,26.80
2018-05-29T08:10:40.714Z,26.90
2018-05-29T08:13:09.016Z,27.00
2018-05-29T08:15:37.343Z,27.40
2018-05-29T08:18:05.680Z,27.80
2018-05-29T08:20:33.997Z,28.20
2018-05-29T08:23:02.340Z,28.60
2018-05-29T08:25:30.654Z,28.80
2018-05-29T08:27:59.002Z,29.00
2018-05-29T08:30:27.325Z,29.10
2018-05-29T08:32:55.667Z,29.20
2018-05-29T08:35:23.994Z,29.40
2018-05-29T08:37:52.350Z,29.40
2018-05-29T08:40:20.670Z,29.30
2018-05-29T08:42:49.014Z,29.30
2018-05-29T08:45:17.392Z,29.10
2018-05-29T08:47:45.766Z,29.00
2018-05-29T08:50:14.077Z,28.90
2018-05-29T08:52:42.424Z,28.80
2018-05-29T08:55:10.734Z,28.90
2018-05-29T08:57:39.081Z,29.00
2018-05-29T09:00:07.393Z,29.20
2018-05-29T09:02:35.738Z,29.20
2018-05-29T09:05:04.065Z,29.20
2018-05-29T09:07:32.428Z,29.20
2018-05-29T09:10:00.741Z,29.00
2018-05-29T09:12:29.066Z,29.10
2018-05-29T09:14:57.416Z,29.20
2018-05-29T09:17:25.738Z,29.50
2018-05-29T09:19:54.109Z,29.90
2018-05-29T09:22:22.434Z,30.40
2018-05-29T09:24:50.297Z,30.30
2018-05-29T09:27:18.617Z,30.50
2018-05-29T09:29:47.049Z,30.20
2018-05-29T09:32:15.314Z,30.10
2018-05-29T09:34:43.655Z,30.10
2018-05-29T09:37:11.978Z,29.90
2018-05-29T09:39:40.322Z,29.90
2018-05-29T09:42:08.649Z,29.80
2018-05-29T09:44:37.054Z,29.70
2018-05-29T09:47:05.366Z,29.60
2018-05-29T09:49:33.715Z,29.80
2018-05-29T09:52:01.269Z,29.70
2018-05-29T09:54:29.672Z,30.20
2018-05-29T09:56:57.961Z,30.70
2018-05-29T09:59:26.305Z,31.20
2018-05-29T10:01:54.634Z,31.50
2018-05-29T10:04:22.977Z,31.60
2018-05-29T10:06:51.307Z,31.60
2018-05-29T10:09:19.649Z,31.70
2018-05-29T10:11:47.982Z,32.00
2018-05-29T10:14:16.324Z,32.30
2018-05-29T10:16:44.638Z,32.80
2018-05-29T10:19:12.983Z,33.00
2018-05-29T10:21:41.309Z,32.90
2018-05-29T10:24:09.645Z,33.00
2018-05-29T10:26:37.973Z,33.40
2018-05-29T10:29:06.321Z,33.90
2018-05-29T10:31:34.646Z,34.20
2018-05-29T10:34:02.990Z,34.20
2018-05-29T10:36:31.309Z,33.80
2018-05-29T10:38:59.654Z,33.70
2018-05-29T10:41:27.977Z,33.60
2018-05-29T10:43:56.319Z,33.40
2018-05-29T10:46:24.634Z,33.20
2018-05-29T10:48:52.944Z,33.10
2018-05-29T10:51:20.542Z,33.10
2018-05-29T10:53:48.876Z,32.30
2018-05-29T10:56:17.250Z,31.90
2018-05-29T10:58:45.577Z,31.90
2018-05-29T11:01:13.917Z,32.20
2018-05-29T11:03:42.224Z,32.30
2018-05-29T11:06:10.562Z,32.00
2018-05-29T11:08:38.878Z,31.70
2018-05-29T11:11:07.224Z,31.50
2018-05-29T11:13:35.547Z,31.20
2018-05-29T11:16:03.892Z,31.00
2018-05-29T11:18:32.206Z,30.90
2018-05-29T11:21:00.549Z,30.90
2018-05-29T11:23:28.867Z,30.80
2018-05-29T11:25:57.215Z,30.80
2018-05-29T11:28:25.529Z,30.80
2018-05-29T11:30:53.889Z,30.70
2018-05-29T11:33:22.208Z,30.60
2018-05-29T11:35:50.549Z,30.30
2018-05-29T11:38:18.881Z,29.90
2018-05-29T11:40:47.226Z,29.70
2018-05-29T11:43:15.546Z,29.60
2018-05-29T11:45:43.894Z,29.50
2018-05-29T11:48:12.218Z,29.40
2018-05-29T11:50:40.561Z,29.40
2018-05-29T11:53:08.877Z,29.30
2018-05-29T11:55:37.210Z,29.20
2018-05-29T11:58:05.544Z,29.00
2018-05-29T12:00:33.910Z,28.70
2018-05-29T12:03:02.230Z,28.60
2018-05-29T12:05:30.565Z,28.50
2018-05-29T12:07:58.880Z,28.30
2018-05-29T12:10:27.235Z,28.00
2018-05-29T12:12:55.562Z,27.70
2018-05-29T12:15:23.897Z,27.40
2018-05-29T12:17:52.213Z,27.00
2018-05-29T12:20:20.554Z,26.50
2018-05-29T12:22:48.889Z,25.90
2018-05-29T12:25:17.275Z,25.50
2018-05-29T12:27:45.590Z,24.90
2018-05-29T12:30:13.920Z,24.40
2018-05-29T12:32:42.262Z,24.00
2018-05-29T12:35:10.579Z,23.60
2018-05-29T12:37:38.918Z,23.20
2018-05-29T12:40:07.247Z,22.70
2018-05-29T12:42:34.803Z,22.70
2018-05-29T12:45:03.096Z,21.00
2018-05-29T12:47:31.411Z,20.40
2018-05-29T12:49:59.716Z,19.90
2018-05-29T12:52:28.040Z,19.60
2018-05-29T12:54:56.341Z,19.50
2018-05-29T12:57:24.681Z,19.40
2018-05-29T12:59:52.520Z,19.40
2018-05-29T13:02:20.843Z,19.40
2018-05-29T13:04:49.142Z,19.40
2018-05-29T13:07:17.458Z,19.30
2018-05-29T13:09:45.754Z,19.30
2018-05-29T13:12:14.075Z,19.40
2018-05-29T13:14:42.370Z,19.50
2018-05-29T13:17:10.709Z,19.50
2018-05-29T13:19:39.002Z,19.60
2018-05-29T13:22:07.320Z,19.70
2018-05-29T13:24:35.616Z,19.70
2018-05-29T13:27:03.988Z,19.80
2018-05-29T13:29:31.482Z,19.80
2018-05-29T13:31:59.809Z,19.90
2018-05-29T13:34:28.108Z,20.00
2018-05-29T13:36:56.435Z,20.10
2018-05-29T13:39:24.735Z,20.10
2018-05-29T13:41:53.059Z,20.20
2018-05-29T13:44:21.363Z,20.30
2018-05-29T13:46:49.678Z,20.30
2018-05-29T13:49:17.989Z,20.40
2018-05-29T13:51:46.318Z,20.40
2018-05-29T13:54:14.621Z,20.50
2018-05-29T13:56:42.934Z,20.60
2018-05-29T13:59:11.235Z,20.60
2018-05-29T14:01:39.553Z,20.60
2018-05-29T14:04:07.851Z,20.60
2018-05-29T14:06:36.191Z,20.70
2018-05-29T14:09:05.344Z,20.70
2018-05-29T14:11:33.607Z,20.70
2018-05-29T14:14:01.159Z,20.70
2018-05-29T14:16:29.453Z,21.00
2018-05-29T14:18:57.766Z,21.10
2018-05-29T14:21:26.063Z,21.10
2018-05-29T14:23:54.379Z,21.20
2018-05-29T14:26:22.671Z,21.30
2018-05-29T14:28:50.991Z,21.50
2018-05-29T14:31:19.290Z,21.70
2018-05-29T14:33:47.611Z,21.80
2018-05-29T14:36:15.915Z,22.00
2018-05-29T14:38:44.238Z,22.10
2018-05-29T14:41:12.531Z,22.30
2018-05-29T14:43:40.854Z,22.50
2018-05-29T14:46:08.390Z,22.50
2018-05-29T14:48:36.712Z,22.90
2018-05-29T14:51:05.014Z,23.20
2018-05-29T14:53:33.330Z,23.50
2018-05-29T14:56:01.630Z,23.80
2018-05-29T14:58:29.179Z,23.70
2018-05-29T15:00:57.471Z,24.10
2018-05-29T15:03:25.786Z,24.20
2018-05-29T15:05:54.095Z,24.20
2018-05-29T15:08:22.404Z,24.30
2018-05-29T15:10:50.694Z,24.40
2018-05-29T15:13:19.008Z,24.60
2018-05-29T15:15:47.303Z,24.60
2018-05-29T15:18:15.631Z,24.70
2018-05-29T15:20:43.930Z,24.70
2018-05-29T15:23:12.256Z,24.70
2018-05-29T15:25:40.558Z,24.70
2018-05-29T15:28:08.880Z,24.70
2018-05-29T15:30:37.186Z,24.60
2018-05-29T15:33:05.503Z,24.50
2018-05-29T15:35:33.802Z,24.50
2018-05-29T15:38:03.293Z,24.60
2018-05-29T15:40:31.596Z,24.50
2018-05-29T15:42:59.910Z,24.40
2018-05-29T15:45:28.207Z,24.20
2018-05-29T15:47:56.499Z,24.20
2018-05-29T15:50:24.819Z,24.20
2018-05-29T15:52:53.124Z,24.50
2018-05-29T15:55:21.847Z,25.10
2018-05-29T15:57:50.142Z,25.40
2018-05-29T16:00:18.455Z,25.60
2018-05-29T16:02:46.752Z,26.00
2018-05-29T16:05:15.073Z,26.10
2018-05-29T16:07:43.370Z,26.00
2018-05-29T16:10:11.687Z,26.00
2018-05-29T16:12:39.983Z,25.80
2018-05-29T16:15:08.299Z,25.70
2018-05-29T16:17:36.591Z,25.60
2018-05-29T16:20:04.902Z,25.50
2018-05-29T16:22:33.195Z,25.30
2018-05-29T16:25:01.509Z,25.20
2018-05-29T16:27:29.802Z,25.00
2018-05-29T16:29:58.116Z,24.70
2018-05-29T16:32:26.411Z,24.40
2018-05-29T16:34:54.732Z,24.20
2018-05-29T16:37:23.023Z,24.10
2018-05-29T16:39:51.343Z,24.00
2018-05-29T16:42:19.639Z,23.90
2018-05-29T16:44:47.955Z,23.70
2018-05-29T16:47:16.247Z,23.60
2018-05-29T16:49:44.558Z,23.50
2018-05-29T16:52:12.852Z,23.30
2018-05-29T16:54:41.175Z,23.20
2018-05-29T16:57:09.462Z,23.10
2018-05-29T16:59:37.779Z,23.10
2018-05-29T17:02:06.072Z,23.00
2018-05-29T17:04:34.382Z,22.90
2018-05-29T17:07:02.671Z,22.90
2018-05-29T17:09:30.983Z,22.90
2018-05-29T17:11:59.278Z,23.00
2018-05-29T17:14:27.590Z,23.00
2018-05-29T17:16:55.882Z,23.00
2018-05-29T17:19:24.196Z,23.10
2018-05-29T17:21:52.506Z,23.10
2018-05-29T17:24:20.828Z,23.10
2018-05-29T17:26:49.115Z,23.20
2018-05-29T17:29:17.411Z,23.30
2018-05-29T17:31:45.726Z,23.30
2018-05-29T17:34:14.019Z,23.40
2018-05-29T17:36:42.330Z,23.50
2018-05-29T17:39:10.618Z,23.50
2018-05-29T17:41:38.935Z,23.40
2018-05-29T17:44:07.231Z,23.70
2018-05-29T17:46:35.543Z,24.60
2018-05-29T17:49:03.842Z,25.60
2018-05-29T17:51:32.167Z,26.60
2018-05-29T17:54:00.456Z,27.40
2018-05-29T17:56:28.772Z,28.10
2018-05-29T17:58:57.064Z,28.50
2018-05-29T18:01:25.378Z,28.70
2018-05-29T18:03:53.662Z,28.70
2018-05-29T18:06:21.979Z,28.60
2018-05-29T18:08:50.280Z,28.20
2018-05-29T18:11:18.632Z,27.80
2018-05-29T18:13:46.922Z,27.20
2018-05-29T18:16:15.231Z,26.60
2018-05-29T18:18:43.520Z,26.20
2018-05-29T18:21:11.842Z,25.90
2018-05-29T18:23:40.139Z,25.80
2018-05-29T18:26:08.462Z,25.60
2018-05-29T18:28:36.758Z,25.30
2018-05-29T18:31:05.083Z,24.90
2018-05-29T18:33:33.385Z,24.40
2018-05-29T18:36:01.716Z,23.90
2018-05-29T18:38:29.262Z,23.90
2018-05-29T18:40:57.579Z,23.20
2018-05-29T18:43:25.884Z,22.90
2018-05-29T18:45:54.206Z,22.70
2018-05-29T18:48:22.519Z,22.50
2018-05-29T18:50:50.839Z,22.30
2018-05-29T18:53:19.130Z,22.20
2018-05-29T18:55:47.438Z,22.10
2018-05-29T18:58:15.743Z,21.90
2018-05-29T19:00:44.070Z,21.80
2018-05-29T19:03:12.375Z,21.60
2018-05-29T19:05:40.671Z,21.50
2018-05-29T19:08:08.990Z,21.30
2018-05-29T19:10:37.279Z,21.20
2018-05-29T19:13:05.591Z,21.10
2018-05-29T19:15:33.896Z,21.00
2018-05-29T19:18:02.211Z,20.90
2018-05-29T19:20:30.515Z,20.80
2018-05-29T19:22:58.899Z,20.70
2018-05-29T19:25:27.144Z,20.50
2018-05-29T19:27:55.463Z,20.40
2018-05-29T19:30:23.761Z,20.30
2018-05-29T19:32:52.079Z,20.20
2018-05-29T19:35:21.132Z,20.10
2018-05-29T19:37:49.411Z,20.10
2018-05-29T19:40:17.705Z,20.00
2018-05-29T19:42:46.017Z,19.90
2018-05-29T19:45:14.314Z,19.80
2018-05-29T19:47:41.879Z,19.80
2018-05-29T19:50:10.204Z,19.80
2018-05-29T19:52:38.514Z,19.80
2018-05-29T19:55:06.819Z,19.80
2018-05-29T19:57:34.382Z,19.70
2018-05-29T20:00:02.740Z,19.80
2018-05-29T20:02:31.062Z,19.70
2018-05-29T20:04:59.373Z,19.70
2018-05-29T20:07:27.694Z,19.70
2018-05-29T20:09:56.003Z,19.70
2018-05-29T20:12:24.318Z,19.60
2018-05-29T20:14:52.625Z,19.60
2018-05-29T20:17:30.791Z,19.60
2018-05-29T20:19:59.145Z,19.50
2018-05-29T20:22:27.427Z,19.50
2018-05-29T20:24:55.722Z,19.50
2018-05-29T20:27:24.039Z,19.50
2018-05-29T20:29:52.338Z,19.50
2018-05-29T20:32:20.647Z,19.40
2018-05-29T20:34:48.942Z,19.40
2018-05-29T20:37:17.271Z,19.40
2018-05-29T20:39:45.567Z,19.40
2018-05-29T20:42:13.861Z,19.30
2018-05-29T20:44:42.659Z,19.30
2018-05-29T20:47:10.948Z,19.30
2018-05-29T20:49:39.258Z,19.30
2018-05-29T20:52:07.551Z,19.20
2018-05-29T20:54:35.106Z,19.20
2018-05-29T20:57:03.394Z,19.20
2018-05-29T20:59:31.711Z,19.20
2018-05-29T21:02:00.002Z,19.10
2018-05-29T21:04:28.307Z,19.10
2018-05-29T21:06:56.621Z,19.00
2018-05-29T21:09:24.910Z,19.00
2018-05-29T21:11:53.194Z,18.90
2018-05-29T21:14:21.528Z,18.90
2018-05-29T21:16:49.823Z,18.80
2018-05-29T21:19:18.127Z,18.70
2018-05-29T21:21:46.451Z,18.70
2018-05-29T21:24:14.747Z,18.60
2018-05-29T21:26:43.067Z,18.50
2018-05-29T21:29:11.355Z,18.50
2018-05-29T21:31:39.669Z,18.40
2018-05-29T21:34:07.960Z,18.30
2018-05-29T21:36:36.283Z,18.30
2018-05-29T21:39:05.314Z,18.20
2018-05-29T21:41:33.635Z,18.20
2018-05-29T21:44:01.925Z,18.10
2018-05-29T21:46:30.267Z,18.10
2018-05-29T21:48:58.539Z,18.00
2018-05-29T21:51:26.866Z,17.90
2018-05-29T21:53:55.162Z,17.90
2018-05-29T21:56:22.686Z,17.80
2018-05-29T21:58:50.995Z,17.80
2018-05-29T22:01:19.278Z,17.70
2018-05-29T22:03:47.599Z,17.60
2018-05-29T22:06:15.892Z,17.60
2018-05-29T22:08:44.202Z,17.60
2018-05-29T22:11:12.495Z,17.50
2018-05-29T22:13:40.799Z,17.40
2018-05-29T22:16:09.096Z,17.40
2018-05-29T22:18:37.410Z,17.30
2018-05-29T22:21:05.707Z,17.30
2018-05-29T22:23:34.021Z,17.20
2018-05-29T22:26:02.322Z,17.20
2018-05-29T22:28:30.643Z,17.10
2018-05-29T22:30:58.940Z,17.10
2018-05-29T22:33:27.231Z,17.00
2018-05-29T22:35:55.543Z,17.00
2018-05-29T22:38:23.840Z,16.90
2018-05-29T22:40:52.159Z,16.90
2018-05-29T22:43:20.450Z,16.80
2018-05-29T22:45:48.761Z,16.80
2018-05-29T22:48:17.059Z,16.80
2018-05-29T22:50:45.371Z,16.70
2018-05-29T22:53:13.672Z,16.70
2018-05-29T22:55:41.984Z,16.60
2018-05-29T22:58:10.276Z,16.60
2018-05-29T23:00:38.596Z,16.50
2018-05-29T23:03:06.887Z,16.50
2018-05-29T23:05:34.496Z,16.50
2018-05-29T23:08:02.752Z,16.40
2018-05-29T23:10:31.045Z,16.30
2018-05-29T23:12:59.358Z,16.30
2018-05-29T23:15:27.643Z,16.30
2018-05-29T23:17:55.960Z,16.30
2018-05-29T23:20:24.250Z,16.30
2018-05-29T23:22:52.558Z,16.30
2018-05-29T23:25:20.852Z,16.30
2018-05-29T23:27:49.170Z,16.30
2018-05-29T23:30:17.465Z,16.30
2018-05-29T23:32:45.786Z,16.20
2018-05-29T23:35:14.092Z,16.20
2018-05-29T23:37:42.408Z,16.20
2018-05-29T23:40:10.712Z,16.10
2018-05-29T23:42:39.052Z,16.10
2018-05-29T23:45:07.351Z,16.00
2018-05-29T23:47:35.642Z,16.00
2018-05-29T23:50:03.966Z,16.00
2018-05-29T23:52:32.272Z,15.90
2018-05-29T23:55:00.588Z,15.90
2018-05-29T23:57:28.110Z,15.90
2018-05-29T23:59:56.444Z,15.90
